^^
Saratoga-Weather Station Historical Data
Daily Summary for February 4, 2020 Units:  Metric    English   Both
Daily Weekly Monthly Yearly Custom
  High: Low: Average:
Temperature: 7.2 °C 2.7 °C 4.9 °C
Dew Point: 5.8 °C 2 °C 3.5 °C
Humidity: 96% 87% 91%
Wind Speed: 20.9km/h 0km/h 3.5km/h
Wind Gust: 29km/h - -
Wind- - West
Pressure: 1035.6 hPa 1027.8 hPa -
Precipitation: 0.0 mm    
Historical Graphs
 
 
Tabular Data for February 4, 2020
Time Temperature Dew Point Pressure Wind Wind Speed Wind Gust Humidity Rainfall Rate (Hourly) solar
00:01 7.2 °C 5.8 °C 1027.8 hPa Calm   1.6 km/h 91% 0.0 mm 0 W/m2
00:06 7.1 °C 5.7 °C 1027.8 hPa Calm     91% 0.0 mm 0 W/m2
00:11 7 °C 5.6 °C 1028.1 hPa Calm     91% 0.0 mm 0 W/m2
00:16 6.9 °C 5.5 °C 1028.1 hPa Calm   6.4 km/h 91% 0.0 mm 0 W/m2
00:21 6.9 °C 5.5 °C 1028.1 hPa Calm     91% 0.0 mm 0 W/m2
00:26 6.8 °C 5.4 °C 1028.1 hPa Calm   1.6 km/h 91% 0.0 mm 0 W/m2
00:31 6.8 °C 5.4 °C 1028.5 hPa Calm     91% 0.0 mm 0 W/m2
00:36 6.7 °C 5.3 °C 1028.8 hPa Calm   1.6 km/h 91% 0.0 mm 0 W/m2
00:41 6.6 °C 5.2 °C 1028.8 hPa WNW 1.4 km/h 4.8 km/h 91% 0.0 mm 0 W/m2
00:46 6.5 °C 5 °C 1028.8 hPa Calm   4.8 km/h 90% 0.0 mm 0 W/m2
00:51 6.4 °C 4.9 °C 1028.8 hPa Calm     90% 0.0 mm 0 W/m2
00:56 6.3 °C 4.8 °C 1028.8 hPa Calm     90% 0.0 mm 0 W/m2
01:01 6.3 °C 4.8 °C 1028.8 hPa Calm     90% 0.0 mm 0 W/m2
01:06 6.2 °C 4.7 °C 1028.8 hPa Calm     90% 0.0 mm 0 W/m2
01:11 6.1 °C 4.6 °C 1028.8 hPa Calm   3.2 km/h 90% 0.0 mm 0 W/m2
01:16 6.1 °C 4.6 °C 1028.8 hPa Calm   1.6 km/h 90% 0.0 mm 0 W/m2
01:21 5.9 °C 4.4 °C 1029.1 hPa Calm     90% 0.0 mm 0 W/m2
01:26 5.9 °C 4.4 °C 1029.1 hPa Calm     90% 0.0 mm 0 W/m2
01:31 5.8 °C 4.3 °C 1029.1 hPa Calm     90% 0.0 mm 0 W/m2
01:36 5.7 °C 4.2 °C 1029.1 hPa Calm     90% 0.0 mm 0 W/m2
01:42 5.6 °C 4.2 °C 1029.5 hPa Calm     91% 0.0 mm 0 W/m2
01:47 5.5 °C 4.1 °C 1029.5 hPa Calm     91% 0.0 mm 0 W/m2
01:52 5.3 °C 4 °C 1029.5 hPa Calm     91% 0.0 mm 0 W/m2
01:57 5.2 °C 3.9 °C 1029.5 hPa Calm     91% 0.0 mm 0 W/m2
02:02 5.1 °C 3.9 °C 1029.5 hPa Calm     92% 0.0 mm 0 W/m2
02:07 5 °C 3.8 °C 1029.5 hPa Calm     92% 0.0 mm 0 W/m2
02:12 5 °C 3.8 °C 1029.5 hPa Calm     92% 0.0 mm 0 W/m2
02:17 5 °C 3.8 °C 1029.5 hPa Calm   4.8 km/h 92% 0.0 mm 0 W/m2
02:22 4.9 °C 3.7 °C 1029.5 hPa Calm     92% 0.0 mm 0 W/m2
02:27 4.9 °C 3.7 °C 1029.5 hPa WSW 3.2 km/h 3.2 km/h 92% 0.0 mm 0 W/m2
02:32 4.9 °C 3.7 °C 1029.5 hPa Calm     92% 0.0 mm 0 W/m2
02:37 4.9 °C 3.7 °C 1029.8 hPa Calm     92% 0.0 mm 0 W/m2
02:42 4.8 °C 3.6 °C 1029.8 hPa Calm     92% 0.0 mm 0 W/m2
02:47 4.8 °C 3.5 °C 1029.8 hPa Calm     91% 0.0 mm 0 W/m2
02:52 4.8 °C 3.5 °C 1029.8 hPa Calm   6.4 km/h 91% 0.0 mm 0 W/m2
02:57 4.7 °C 3.4 °C 1029.8 hPa Calm     91% 0.0 mm 0 W/m2
03:02 4.7 °C 3.4 °C 1029.8 hPa Calm     91% 0.0 mm 0 W/m2
03:07 4.7 °C 3.4 °C 1029.8 hPa Calm     91% 0.0 mm 0 W/m2
03:12 4.7 °C 3.4 °C 1030.1 hPa Calm     91% 0.0 mm 0 W/m2
03:17 4.7 °C 3.4 °C 1030.1 hPa Calm     91% 0.0 mm 0 W/m2
03:23 4.7 °C 3.4 °C 1030.1 hPa Calm     91% 0.0 mm 0 W/m2
03:28 4.8 °C 3.5 °C 1030.1 hPa Calm   3.2 km/h 91% 0.0 mm 0 W/m2
03:33 4.8 °C 3.5 °C 1030.1 hPa Calm     91% 0.0 mm 0 W/m2
03:38 4.8 °C 3.5 °C 1030.1 hPa Calm   3.2 km/h 91% 0.0 mm 0 W/m2
03:43 4.7 °C 3.2 °C 1030.1 hPa Calm     90% 0.0 mm 0 W/m2
03:48 4.7 °C 3.2 °C 1030.5 hPa Calm   1.6 km/h 90% 0.0 mm 0 W/m2
03:53 4.5 °C 3.2 °C 1030.5 hPa Calm     91% 0.0 mm 0 W/m2
03:58 4.4 °C 3.1 °C 1030.5 hPa Calm     91% 0.0 mm 0 W/m2
04:03 4.4 °C 3.1 °C 1030.5 hPa Calm   1.6 km/h 91% 0.0 mm 0 W/m2
04:08 4.4 °C 3.1 °C 1030.5 hPa Calm     91% 0.0 mm 0 W/m2
04:13 4.5 °C 3.2 °C 1030.5 hPa Calm     91% 0.0 mm 0 W/m2
04:18 4.5 °C 3.2 °C 1030.5 hPa Calm     91% 0.0 mm 0 W/m2
04:23 4.5 °C 3.2 °C 1030.5 hPa Calm   3.2 km/h 91% 0.0 mm 0 W/m2
04:28 4.6 °C 3.4 °C 1030.5 hPa Calm     92% 0.0 mm 0 W/m2
04:33 4.7 °C 3.5 °C 1030.5 hPa Calm     92% 0.0 mm 0 W/m2
04:38 4.8 °C 3.6 °C 1030.5 hPa Calm   3.2 km/h 92% 0.0 mm 0 W/m2
04:43 4.8 °C 3.6 °C 1030.5 hPa Calm     92% 0.0 mm 0 W/m2
04:48 4.8 °C 3.6 °C 1030.1 hPa Calm     92% 0.0 mm 0 W/m2
04:53 4.7 °C 3.4 °C 1030.5 hPa Calm   16.1 km/h 91% 0.0 mm 0 W/m2
04:58 4.6 °C 3.3 °C 1030.5 hPa Calm     91% 0.0 mm 0 W/m2
05:03 4.6 °C 3.3 °C 1030.5 hPa Calm   12.9 km/h 91% 0.0 mm 0 W/m2
05:08 4.4 °C 3.1 °C 1030.5 hPa Calm     91% 0.0 mm 0 W/m2
05:13 4.3 °C 3.1 °C 1030.5 hPa Calm   4.8 km/h 92% 0.0 mm 0 W/m2
05:18 4.3 °C 3.1 °C 1030.5 hPa Calm   6.4 km/h 92% 0.0 mm 0 W/m2
05:23 4.2 °C 3 °C 1030.5 hPa Calm   1.6 km/h 92% 0.0 mm 0 W/m2
05:28 4.1 °C 2.9 °C 1030.5 hPa Calm   1.6 km/h 92% 0.0 mm 0 W/m2
05:33 4.1 °C 2.9 °C 1030.8 hPa Calm   4.8 km/h 92% 0.0 mm 0 W/m2
05:38 4.1 °C 3.1 °C 1031.2 hPa Calm     93% 0.0 mm 0 W/m2
05:43 4 °C 3 °C 1031.2 hPa Calm     93% 0.0 mm 0 W/m2
05:48 3.9 °C 2.9 °C 1031.2 hPa Calm     93% 0.0 mm 0 W/m2
05:53 3.8 °C 2.8 °C 1031.2 hPa Calm     93% 0.0 mm 0 W/m2
05:58 3.7 °C 2.7 °C 1031.2 hPa Calm   1.6 km/h 93% 0.0 mm 0 W/m2
06:03 3.6 °C 2.6 °C 1031.2 hPa Calm     93% 0.0 mm 0 W/m2
06:08 3.5 °C 2.5 °C 1031.5 hPa Calm     93% 0.0 mm 0 W/m2
06:13 3.3 °C 2.4 °C 1031.5 hPa Calm     94% 0.0 mm 0 W/m2
06:18 3.2 °C 2.3 °C 1031.2 hPa Calm   1.6 km/h 94% 0.0 mm 0 W/m2
06:23 3.1 °C 2.2 °C 1031.2 hPa Calm     94% 0.0 mm 0 W/m2
06:28 3.1 °C 2.2 °C 1031.5 hPa Calm   1.6 km/h 94% 0.0 mm 0 W/m2
06:33 3 °C 2.1 °C 1031.5 hPa Calm     94% 0.0 mm 0 W/m2
06:38 2.9 °C 2.2 °C 1031.5 hPa Calm     95% 0.0 mm 0 W/m2
06:43 2.8 °C 2.1 °C 1031.5 hPa Calm   6.4 km/h 95% 0.0 mm 0 W/m2
06:48 2.8 °C 2.1 °C 1031.5 hPa Calm     95% 0.0 mm 0 W/m2
06:53 2.8 °C 2.1 °C 1031.8 hPa Calm     95% 0.0 mm 0 W/m2
06:58 2.8 °C 2.1 °C 1031.8 hPa Calm   12.9 km/h 95% 0.0 mm 0 W/m2
07:03 2.8 °C 2.1 °C 1031.5 hPa Calm     95% 0.0 mm 0 W/m2
07:09 2.8 °C 2.1 °C 1031.8 hPa Calm   9.7 km/h 95% 0.0 mm 0 W/m2
07:14 2.7 °C 2 °C 1031.8 hPa Calm     95% 0.0 mm 0 W/m2
07:19 2.7 °C 2 °C 1031.8 hPa Calm   6.4 km/h 95% 0.0 mm 0 W/m2
07:24 2.7 °C 2 °C 1031.8 hPa Calm     95% 0.0 mm 0 W/m2
07:29 2.8 °C 2.1 °C 1031.8 hPa Calm     95% 0.0 mm 0 W/m2
07:34 2.8 °C 2.1 °C 1031.8 hPa Calm   4.8 km/h 95% 0.0 mm 0 W/m2
07:39 2.8 °C 2.1 °C 1032.2 hPa Calm     95% 0.0 mm 0 W/m2
07:44 2.8 °C 2.2 °C 1032.2 hPa Calm   12.9 km/h 96% 0.0 mm 0 W/m2
07:49 2.9 °C 2.3 °C 1032.2 hPa Calm   3.2 km/h 96% 0.0 mm 0 W/m2
07:54 2.9 °C 2.3 °C 1032.2 hPa Calm     96% 0.0 mm 0 W/m2
07:59 2.9 °C 2.2 °C 1032.2 hPa Calm   1.6 km/h 95% 0.0 mm 0 W/m2
08:04 2.9 °C 2.2 °C 1032.2 hPa Calm   3.2 km/h 95% 0.0 mm 0 W/m2
08:09 2.9 °C 2.2 °C 1032.2 hPa Calm     95% 0.0 mm 0 W/m2
08:14 2.9 °C 2.2 °C 1032.2 hPa Calm     95% 0.0 mm 0 W/m2
08:19 2.9 °C 2.2 °C 1031.8 hPa Calm     95% 0.0 mm 0 W/m2
08:24 2.9 °C 2.2 °C 1031.8 hPa Calm     95% 0.0 mm 0 W/m2
08:29 2.8 °C 2.1 °C 1032.2 hPa Calm     95% 0.0 mm 0 W/m2
08:34 2.8 °C 2.1 °C 1032.2 hPa Calm   4.8 km/h 95% 0.0 mm 0 W/m2
08:39 2.9 °C 2.2 °C 1031.8 hPa SW 8 km/h 8 km/h 95% 0.0 mm 0 W/m2
08:44 2.9 °C 2.2 °C 1032.2 hPa SW 1.4 km/h 9.7 km/h 95% 0.0 mm 5 W/m2
08:49 3 °C 2.3 °C 1032.2 hPa Calm     95% 0.0 mm 7 W/m2
08:54 3.1 °C 2.4 °C 1032.2 hPa Calm   9.7 km/h 95% 0.0 mm 9 W/m2
08:59 3.2 °C 2.5 °C 1032.5 hPa Calm   4.8 km/h 95% 0.0 mm 12 W/m2
09:04 3.2 °C 2.5 °C 1032.5 hPa Calm   16.1 km/h 95% 0.0 mm 14 W/m2
09:09 3.3 °C 2.6 °C 1032.5 hPa Calm   11.3 km/h 95% 0.0 mm 11 W/m2
09:14 3.4 °C 2.5 °C 1032.5 hPa Calm   12.9 km/h 94% 0.0 mm 16 W/m2
09:19 3.4 °C 2.5 °C 1032.8 hPa WSW 6.4 km/h 9.7 km/h 94% 0.0 mm 16 W/m2
09:24 3.4 °C 2.5 °C 1032.8 hPa Calm     94% 0.0 mm 19 W/m2
09:29 3.4 °C 2.5 °C 1032.8 hPa WSW 1.4 km/h 3.2 km/h 94% 0.0 mm 18 W/m2
09:34 3.5 °C 2.6 °C 1032.8 hPa Calm   6.4 km/h 94% 0.0 mm 16 W/m2
09:39 3.6 °C 2.7 °C 1032.8 hPa Calm     94% 0.0 mm 16 W/m2
09:44 3.6 °C 2.7 °C 1032.8 hPa WNW 1.4 km/h 3.2 km/h 94% 0.0 mm 16 W/m2
09:49 3.6 °C 2.7 °C 1032.8 hPa Calm     94% 0.0 mm 19 W/m2
09:54 3.6 °C 2.7 °C 1032.8 hPa Calm   1.6 km/h 94% 0.0 mm 30 W/m2
09:59 3.6 °C 2.7 °C 1032.8 hPa Calm     94% 0.0 mm 25 W/m2
10:05 3.6 °C 2.7 °C 1032.8 hPa Calm     94% 0.0 mm 39 W/m2
10:10 3.7 °C 2.8 °C 1032.8 hPa Calm     94% 0.0 mm 44 W/m2
10:15 3.7 °C 2.8 °C 1032.8 hPa Calm     94% 0.0 mm 65 W/m2
10:20 3.7 °C 2.8 °C 1032.8 hPa Calm   6.4 km/h 94% 0.0 mm 77 W/m2
10:25 3.7 °C 2.8 °C 1032.8 hPa Calm     94% 0.0 mm 69 W/m2
10:30 3.8 °C 2.9 °C 1032.8 hPa Calm   6.4 km/h 94% 0.0 mm 62 W/m2
10:35 3.8 °C 2.9 °C 1032.8 hPa Calm     94% 0.0 mm 60 W/m2
10:40 3.8 °C 2.8 °C 1032.5 hPa Calm   8 km/h 93% 0.0 mm 47 W/m2
10:45 3.8 °C 2.9 °C 1032.5 hPa Calm     94% 0.0 mm 100 W/m2
10:50 3.9 °C 3 °C 1032.5 hPa Calm   6.4 km/h 94% 0.0 mm 84 W/m2
10:55 4 °C 3.1 °C 1032.5 hPa Calm     94% 0.0 mm 88 W/m2
11:00 4.1 °C 3.2 °C 1032.5 hPa Calm   6.4 km/h 94% 0.0 mm 67 W/m2
11:05 4.2 °C 3.2 °C 1032.5 hPa Calm   14.5 km/h 93% 0.0 mm 84 W/m2
11:10 4.2 °C 3.2 °C 1032.5 hPa Calm     93% 0.0 mm 81 W/m2
11:15 4.2 °C 3.2 °C 1032.5 hPa WNW 16.3 km/h 19.3 km/h 93% 0.0 mm 65 W/m2
11:20 4.2 °C 3.2 °C 1032.5 hPa WNW 3.2 km/h 3.2 km/h 93% 0.0 mm 51 W/m2
11:25 4.2 °C 3 °C 1032.8 hPa Calm   19.3 km/h 92% 0.0 mm 67 W/m2
11:30 4.1 °C 2.9 °C 1032.5 hPa Calm   19.3 km/h 92% 0.0 mm 102 W/m2
11:35 4.2 °C 3 °C 1032.5 hPa Calm   9.7 km/h 92% 0.0 mm 155 W/m2
11:40 4.3 °C 3.1 °C 1032.5 hPa Calm   17.7 km/h 92% 0.0 mm 86 W/m2
11:45 4.3 °C 3.1 °C 1032.5 hPa WSW 6.4 km/h 11.3 km/h 92% 0.0 mm 63 W/m2
11:50 4.4 °C 3.2 °C 1032.5 hPa Calm     92% 0.0 mm 90 W/m2
11:56 4.5 °C 3.3 °C 1032.8 hPa West 6.4 km/h 12.9 km/h 92% 0.0 mm 121 W/m2
12:01 4.6 °C 3.4 °C 1032.8 hPa WNW 4.7 km/h 6.4 km/h 92% 0.0 mm 135 W/m2
12:06 4.7 °C 3.5 °C 1032.8 hPa WNW 11.1 km/h 17.7 km/h 92% 0.0 mm 151 W/m2
12:11 4.7 °C 3.4 °C 1032.8 hPa WSW 1.4 km/h 25.7 km/h 91% 0.0 mm 139 W/m2
12:16 4.7 °C 3.4 °C 1032.8 hPa West 11.1 km/h 16.1 km/h 91% 0.0 mm 116 W/m2
12:21 4.8 °C 3.5 °C 1032.8 hPa SW 7.9 km/h 17.7 km/h 91% 0.0 mm 111 W/m2
12:26 4.8 °C 3.5 °C 1032.8 hPa SW 6.4 km/h 11.3 km/h 91% 0.0 mm 123 W/m2
12:31 4.8 °C 3.5 °C 1033.2 hPa WSW 9.7 km/h 9.7 km/h 91% 0.0 mm 118 W/m2
12:36 4.8 °C 3.3 °C 1033.2 hPa West 6.4 km/h 16.1 km/h 90% 0.0 mm 98 W/m2
12:41 4.8 °C 3.5 °C 1033.2 hPa West 9.7 km/h 20.9 km/h 91% 0.0 mm 123 W/m2
12:46 4.8 °C 3.3 °C 1033.2 hPa West 11.1 km/h 16.1 km/h 90% 0.0 mm 109 W/m2
12:51 4.8 °C 3.3 °C 1032.8 hPa WNW 13 km/h 27.4 km/h 90% 0.0 mm 98 W/m2
12:56 4.8 °C 3.3 °C 1032.8 hPa WSW 6.4 km/h 14.5 km/h 90% 0.0 mm 125 W/m2
13:01 4.9 °C 3.2 °C 1032.8 hPa SW 4.7 km/h 22.5 km/h 89% 0.0 mm 141 W/m2
13:06 4.9 °C 3.2 °C 1032.8 hPa West 13 km/h 17.7 km/h 89% 0.0 mm 98 W/m2
13:11 4.9 °C 3.2 °C 1032.8 hPa West 16.3 km/h 20.9 km/h 89% 0.0 mm 113 W/m2
13:16 4.9 °C 3.2 °C 1032.5 hPa WNW 7.9 km/h 16.1 km/h 89% 0.0 mm 123 W/m2
13:21 4.9 °C 3.2 °C 1032.5 hPa West 16.3 km/h 29 km/h 89% 0.0 mm 105 W/m2
13:26 4.9 °C 3.2 °C 1032.5 hPa West 14.3 km/h 17.7 km/h 89% 0.0 mm 107 W/m2
13:31 5 °C 3.3 °C 1032.2 hPa WNW 7.9 km/h 24.1 km/h 89% 0.0 mm 118 W/m2
13:36 5.1 °C 3.4 °C 1031.8 hPa WNW 4.7 km/h 8 km/h 89% 0.0 mm 137 W/m2
13:41 5.2 °C 3.5 °C 1032.2 hPa WNW 3.2 km/h 12.9 km/h 89% 0.0 mm 102 W/m2
13:46 5.3 °C 3.6 °C 1031.8 hPa WNW 7.9 km/h 16.1 km/h 89% 0.0 mm 114 W/m2
13:51 5.3 °C 3.6 °C 1032.2 hPa West 4.7 km/h 6.4 km/h 89% 0.0 mm 104 W/m2
13:56 5.4 °C 3.7 °C 1032.2 hPa WNW 3.2 km/h 6.4 km/h 89% 0.0 mm 98 W/m2
14:01 5.5 °C 3.8 °C 1031.8 hPa WNW 11.1 km/h 14.5 km/h 89% 0.0 mm 72 W/m2
14:06 5.4 °C 3.6 °C 1031.8 hPa West 9.7 km/h 12.9 km/h 88% 0.0 mm 91 W/m2
14:11 5.4 °C 3.6 °C 1032.2 hPa WNW 11.1 km/h 20.9 km/h 88% 0.0 mm 95 W/m2
14:16 5.4 °C 3.6 °C 1032.2 hPa WSW 4.7 km/h 14.5 km/h 88% 0.0 mm 98 W/m2
14:21 5.5 °C 3.7 °C 1032.2 hPa NW 7.9 km/h 11.3 km/h 88% 0.0 mm 79 W/m2
14:26 5.5 °C 3.7 °C 1032.2 hPa Calm   9.7 km/h 88% 0.0 mm 54 W/m2
14:31 5.4 °C 3.4 °C 1032.2 hPa NW 20.9 km/h 20.9 km/h 87% 0.0 mm 56 W/m2
14:36 5.4 °C 3.4 °C 1032.2 hPa West 9.7 km/h 11.3 km/h 87% 0.0 mm 67 W/m2
14:41 5.4 °C 3.4 °C 1032.2 hPa West 17.7 km/h 24.1 km/h 87% 0.0 mm 76 W/m2
14:46 5.4 °C 3.4 °C 1032.2 hPa SW 14.3 km/h 17.7 km/h 87% 0.0 mm 91 W/m2
14:51 5.4 °C 3.4 °C 1032.2 hPa WNW 11.1 km/h 20.9 km/h 87% 0.0 mm 81 W/m2
14:57 5.5 °C 3.5 °C 1032.5 hPa SW 14.3 km/h 17.7 km/h 87% 0.0 mm 54 W/m2
15:02 5.6 °C 3.6 °C 1032.5 hPa Calm   3.2 km/h 87% 0.0 mm 39 W/m2
15:07 5.6 °C 3.6 °C 1032.5 hPa WSW 4.7 km/h 16.1 km/h 87% 0.0 mm 28 W/m2
15:12 5.6 °C 3.8 °C 1032.5 hPa WNW 3.2 km/h 9.7 km/h 88% 0.0 mm 47 W/m2
15:17 5.6 °C 3.8 °C 1032.8 hPa Calm   11.3 km/h 88% 0.0 mm 53 W/m2
15:22 5.6 °C 3.8 °C 1032.5 hPa WSW 4.7 km/h 16.1 km/h 88% 0.0 mm 47 W/m2
15:27 5.6 °C 3.8 °C 1032.8 hPa WNW 11.1 km/h 19.3 km/h 88% 0.0 mm 40 W/m2
15:32 5.6 °C 3.6 °C 1032.5 hPa West 14.3 km/h 16.1 km/h 87% 0.0 mm 56 W/m2
15:37 5.6 °C 3.6 °C 1032.5 hPa WNW 1.4 km/h 17.7 km/h 87% 0.0 mm 37 W/m2
15:42 5.6 °C 3.8 °C 1032.8 hPa WNW 4.7 km/h 11.3 km/h 88% 0.0 mm 32 W/m2
15:47 5.6 °C 3.8 °C 1032.5 hPa WNW 7.9 km/h 17.7 km/h 88% 0.0 mm 30 W/m2
15:52 5.6 °C 3.8 °C 1032.5 hPa WNW 7.9 km/h 9.7 km/h 88% 0.0 mm 16 W/m2
15:57 5.6 °C 3.8 °C 1032.5 hPa WNW 7.9 km/h 16.1 km/h 88% 0.0 mm 25 W/m2
16:02 5.6 °C 3.8 °C 1032.5 hPa WNW 3.2 km/h 4.8 km/h 88% 0.0 mm 18 W/m2
16:07 5.6 °C 3.8 °C 1032.5 hPa West 3.2 km/h 16.1 km/h 88% 0.0 mm 9 W/m2
16:12 5.6 °C 3.8 °C 1032.5 hPa NW 6.4 km/h 16.1 km/h 88% 0.0 mm 12 W/m2
16:17 5.6 °C 3.9 °C 1032.5 hPa Calm   11.3 km/h 89% 0.0 mm 12 W/m2
16:22 5.6 °C 3.9 °C 1032.5 hPa West 4.7 km/h 16.1 km/h 89% 0.0 mm 11 W/m2
16:27 5.5 °C 3.8 °C 1032.5 hPa WNW 4.7 km/h 8 km/h 89% 0.0 mm 11 W/m2
16:32 5.5 °C 3.8 °C 1032.5 hPa West 1.4 km/h 6.4 km/h 89% 0.0 mm 7 W/m2
16:37 5.5 °C 3.8 °C 1032.5 hPa West 3.2 km/h 8 km/h 89% 0.0 mm 7 W/m2
16:42 5.4 °C 3.7 °C 1032.8 hPa WNW 4.7 km/h 9.7 km/h 89% 0.0 mm 0 W/m2
16:47 5.5 °C 3.8 °C 1032.8 hPa West 4.7 km/h 8 km/h 89% 0.0 mm 0 W/m2
16:52 5.5 °C 3.8 °C 1032.8 hPa Calm   9.7 km/h 89% 0.0 mm 0 W/m2
16:57 5.5 °C 3.8 °C 1032.8 hPa Calm   8 km/h 89% 0.0 mm 0 W/m2
17:02 5.5 °C 3.8 °C 1032.8 hPa West 3.2 km/h 9.7 km/h 89% 0.0 mm 0 W/m2
17:07 5.5 °C 4 °C 1032.8 hPa WNW 6.4 km/h 12.9 km/h 90% 0.0 mm 0 W/m2
17:13 5.5 °C 4 °C 1032.8 hPa West 4.7 km/h 4.8 km/h 90% 0.0 mm 0 W/m2
17:18 5.4 °C 3.9 °C 1032.8 hPa West 1.4 km/h 1.6 km/h 90% 0.0 mm 0 W/m2
17:23 5.4 °C 3.9 °C 1032.8 hPa Calm     90% 0.0 mm 0 W/m2
17:28 5.4 °C 3.9 °C 1032.8 hPa WNW 3.2 km/h 4.8 km/h 90% 0.0 mm 0 W/m2
17:33 5.5 °C 4 °C 1032.8 hPa Calm   6.4 km/h 90% 0.0 mm 0 W/m2
17:38 5.5 °C 4 °C 1032.8 hPa Calm     90% 0.0 mm 0 W/m2
17:43 5.4 °C 3.9 °C 1033.2 hPa Calm     90% 0.0 mm 0 W/m2
17:48 5.4 °C 3.9 °C 1033.2 hPa Calm     90% 0.0 mm 0 W/m2
17:53 5.4 °C 3.9 °C 1033.2 hPa Calm     90% 0.0 mm 0 W/m2
17:58 5.4 °C 3.9 °C 1033.2 hPa Calm     90% 0.0 mm 0 W/m2
18:03 5.3 °C 4 °C 1033.2 hPa WSW 4.7 km/h 8 km/h 91% 0.0 mm 0 W/m2
18:08 5.4 °C 4 °C 1033.2 hPa Calm     91% 0.0 mm 0 W/m2
18:13 5.4 °C 4 °C 1033.2 hPa SW 7.9 km/h 11.3 km/h 91% 0.0 mm 0 W/m2
18:18 5.6 °C 4.2 °C 1033.5 hPa SW 7.9 km/h 8 km/h 91% 0.0 mm 0 W/m2
18:23 5.6 °C 4.2 °C 1033.5 hPa Calm   11.3 km/h 91% 0.0 mm 0 W/m2
18:28 5.7 °C 4.3 °C 1033.5 hPa WSW 4.7 km/h 14.5 km/h 91% 0.0 mm 0 W/m2
18:33 5.7 °C 4.2 °C 1033.5 hPa West 4.7 km/h 6.4 km/h 90% 0.0 mm 0 W/m2
18:38 5.7 °C 4.2 °C 1033.5 hPa Calm   14.5 km/h 90% 0.0 mm 0 W/m2
18:43 5.8 °C 4.3 °C 1033.5 hPa West 4.7 km/h 6.4 km/h 90% 0.0 mm 0 W/m2
18:49 5.8 °C 4.3 °C 1033.5 hPa WSW 4.7 km/h 11.3 km/h 90% 0.0 mm 0 W/m2
18:54 5.8 °C 4.1 °C 1033.5 hPa WSW 1.4 km/h 11.3 km/h 89% 0.0 mm 0 W/m2
18:59 5.9 °C 4.2 °C 1033.5 hPa Calm   6.4 km/h 89% 0.0 mm 0 W/m2
19:04 5.9 °C 4.2 °C 1033.5 hPa West 1.4 km/h 8 km/h 89% 0.0 mm 0 W/m2
19:09 5.9 °C 4.2 °C 1033.5 hPa WSW 4.7 km/h 11.3 km/h 89% 0.0 mm 0 W/m2
19:14 5.9 °C 4.1 °C 1033.5 hPa WSW 4.7 km/h 6.4 km/h 88% 0.0 mm 0 W/m2
19:19 5.9 °C 4.1 °C 1033.5 hPa West 6.4 km/h 11.3 km/h 88% 0.0 mm 0 W/m2
19:24 5.9 °C 4.1 °C 1033.5 hPa Calm   4.8 km/h 88% 0.0 mm 0 W/m2
19:29 5.9 °C 4.1 °C 1033.5 hPa WSW 13 km/h 14.5 km/h 88% 0.0 mm 0 W/m2
19:34 5.9 °C 4.1 °C 1033.9 hPa WSW 6.4 km/h 12.9 km/h 88% 0.0 mm 0 W/m2
19:39 5.9 °C 4.1 °C 1033.9 hPa Calm   6.4 km/h 88% 0.0 mm 0 W/m2
19:44 5.9 °C 4.1 °C 1033.9 hPa West 1.4 km/h 9.7 km/h 88% 0.0 mm 0 W/m2
19:49 5.9 °C 4.2 °C 1033.9 hPa West 4.7 km/h 11.3 km/h 89% 0.0 mm 0 W/m2
19:54 5.9 °C 4.2 °C 1033.9 hPa Calm   9.7 km/h 89% 0.0 mm 0 W/m2
19:59 5.9 °C 4.2 °C 1033.9 hPa West 6.4 km/h 6.4 km/h 89% 0.0 mm 0 W/m2
20:04 5.9 °C 4.2 °C 1034.2 hPa Calm   9.7 km/h 89% 0.0 mm 0 W/m2
20:09 5.9 °C 4.2 °C 1034.2 hPa Calm   3.2 km/h 89% 0.0 mm 0 W/m2
20:14 5.8 °C 4.1 °C 1034.2 hPa West 1.4 km/h 1.6 km/h 89% 0.0 mm 0 W/m2
20:19 5.8 °C 4.1 °C 1034.2 hPa WSW 1.4 km/h 6.4 km/h 89% 0.0 mm 0 W/m2
20:24 5.8 °C 4.1 °C 1034.2 hPa West 9.7 km/h 9.7 km/h 89% 0.0 mm 0 W/m2
20:29 5.8 °C 4.1 °C 1034.2 hPa Calm   9.7 km/h 89% 0.0 mm 0 W/m2
20:34 5.8 °C 4.1 °C 1034.5 hPa WNW 4.7 km/h 6.4 km/h 89% 0.0 mm 0 W/m2
20:39 5.8 °C 4.1 °C 1034.5 hPa WSW 3.2 km/h 16.1 km/h 89% 0.0 mm 0 W/m2
20:44 5.9 °C 4.2 °C 1034.5 hPa WSW 11.1 km/h 12.9 km/h 89% 0.0 mm 0 W/m2
20:49 5.9 °C 4.2 °C 1034.5 hPa WNW 7.9 km/h 11.3 km/h 89% 0.0 mm 0 W/m2
20:54 5.9 °C 4.2 °C 1034.5 hPa SW 6.4 km/h 12.9 km/h 89% 0.0 mm 0 W/m2
20:59 5.9 °C 4.2 °C 1034.5 hPa WNW 4.7 km/h 4.8 km/h 89% 0.0 mm 0 W/m2
21:04 5.9 °C 4.2 °C 1034.5 hPa West 11.1 km/h 17.7 km/h 89% 0.0 mm 0 W/m2
21:09 5.9 °C 4.2 °C 1034.5 hPa WSW 11.1 km/h 14.5 km/h 89% 0.0 mm 0 W/m2
21:14 5.9 °C 4.2 °C 1034.5 hPa WSW 6.4 km/h 16.1 km/h 89% 0.0 mm 0 W/m2
21:19 5.9 °C 4.2 °C 1034.5 hPa WSW 7.9 km/h 11.3 km/h 89% 0.0 mm 0 W/m2
21:24 5.9 °C 4.2 °C 1034.2 hPa WNW 9.7 km/h 16.1 km/h 89% 0.0 mm 0 W/m2
21:29 5.9 °C 4.2 °C 1034.5 hPa West 3.2 km/h 14.5 km/h 89% 0.0 mm 0 W/m2
21:34 5.8 °C 4.1 °C 1034.5 hPa West 9.7 km/h 17.7 km/h 89% 0.0 mm 0 W/m2
21:39 5.8 °C 4.1 °C 1034.5 hPa WSW 4.7 km/h 14.5 km/h 89% 0.0 mm 0 W/m2
21:44 5.8 °C 4.1 °C 1034.2 hPa SW 4.7 km/h 16.1 km/h 89% 0.0 mm 0 W/m2
21:49 5.8 °C 4.1 °C 1034.2 hPa WSW 7.9 km/h 14.5 km/h 89% 0.0 mm 0 W/m2
21:54 5.8 °C 4.1 °C 1034.5 hPa West 9.7 km/h 20.9 km/h 89% 0.0 mm 0 W/m2
21:59 5.8 °C 4.1 °C 1034.5 hPa West 13 km/h 16.1 km/h 89% 0.0 mm 0 W/m2
22:04 5.8 °C 4.1 °C 1034.5 hPa SW 13 km/h 19.3 km/h 89% 0.0 mm 0 W/m2
22:09 5.8 °C 4.1 °C 1034.5 hPa West 13 km/h 16.1 km/h 89% 0.0 mm 0 W/m2
22:14 5.8 °C 4.1 °C 1034.5 hPa WSW 17.7 km/h 22.5 km/h 89% 0.0 mm 0 W/m2
22:19 5.8 °C 4.1 °C 1034.5 hPa WSW 13 km/h 14.5 km/h 89% 0.0 mm 0 W/m2
22:24 5.7 °C 4 °C 1034.5 hPa WSW 7.9 km/h 22.5 km/h 89% 0.0 mm 0 W/m2
22:29 5.7 °C 4.2 °C 1034.5 hPa West 4.7 km/h 8 km/h 90% 0.0 mm 0 W/m2
22:34 5.6 °C 4.1 °C 1034.9 hPa WSW 6.4 km/h 17.7 km/h 90% 0.0 mm 0 W/m2
22:39 5.6 °C 4.1 °C 1034.9 hPa WSW 7.9 km/h 11.3 km/h 90% 0.0 mm 0 W/m2
22:44 5.6 °C 4.1 °C 1034.9 hPa West 9.7 km/h 16.1 km/h 90% 0.0 mm 0 W/m2
22:49 5.6 °C 4.1 °C 1034.5 hPa WSW 11.1 km/h 12.9 km/h 90% 0.0 mm 0 W/m2
22:54 5.6 °C 4.1 °C 1034.9 hPa West 6.4 km/h 16.1 km/h 90% 0.0 mm 0 W/m2
22:59 5.6 °C 4.1 °C 1034.5 hPa West 9.7 km/h 14.5 km/h 90% 0.0 mm 0 W/m2
23:04 5.5 °C 4.1 °C 1034.9 hPa SW 7.9 km/h 16.1 km/h 91% 0.0 mm 0 W/m2
23:09 5.5 °C 4.1 °C 1034.9 hPa West 16.3 km/h 19.3 km/h 91% 0.0 mm 0 W/m2
23:14 5.5 °C 4.1 °C 1034.9 hPa SW 9.7 km/h 12.9 km/h 91% 0.0 mm 0 W/m2
23:19 5.5 °C 4.1 °C 1035.2 hPa WSW 13 km/h 17.7 km/h 91% 0.0 mm 0 W/m2
23:24 5.6 °C 4.2 °C 1035.2 hPa WSW 7.9 km/h 16.1 km/h 91% 0.0 mm 0 W/m2
23:30 5.6 °C 4.2 °C 1035.6 hPa West 6.4 km/h 19.3 km/h 91% 0.0 mm 0 W/m2
23:35 5.6 °C 4.2 °C 1035.6 hPa West 17.7 km/h 19.3 km/h 91% 0.0 mm 0 W/m2
23:40 5.6 °C 4.2 °C 1035.2 hPa WSW 11.1 km/h 11.3 km/h 91% 0.0 mm 0 W/m2
23:45 5.6 °C 4.2 °C 1035.2 hPa West 6.4 km/h 12.9 km/h 91% 0.0 mm 0 W/m2
23:50 5.5 °C 4.1 °C 1035.6 hPa WNW 13 km/h 12.9 km/h 91% 0.0 mm 0 W/m2
23:55 5.5 °C 4.1 °C 1035.2 hPa WSW 16.3 km/h 19.3 km/h 91% 0.0 mm 0 W/m2
Juneau County Weather
Compliments of Weather Underground - 4 mb